x

Buoy I01 - Eastern Maine Shelf (44034) Wave Buoy

5:04am - Wed 22nd Feb 2017 All times are EST. -5 hours from GMT.

  • Sig Wave height 3.9ft
  • Peak Period 5s
  • Wind
    16mph, 18mph gusts
  • Sea Temp 40°f
  • 空気 Temp 40°f
  • Sea Pressure 1016.4mb
  • Buoy I01 - Eastern Maine Shelf
  • Buoy I01 - Eastern Maine Shelf

More Historic Weather Station data

Upgrade to MSW Pro to gain access to the past 30 days of data for over 8000 Wavebouys and Weather Stations around the globe.

Join Pro

Comparision Forecast

View Surf forecast
   
Wed 02/22 5:04am 4ft 5s 16 18 mph 1016.4mb 40f 40f
4:04am 3.5ft 5s 18 20 mph 1016.5mb 40f 40f
3:04am 3ft 5s 16 18 mph 1016.8mb 40f 39f
2:04am 3ft 4s 16 18 mph 1017.9mb 40f 39f
1:04am 2.5ft 4s 16 18 mph 1018.9mb 40f 38f
12:04am 2.5ft 4s 16 20 mph 1019.2mb 40f 38f
Tue 02/21 11:04pm 1.6ft 3s 16 18 mph 1019.7mb 40f 36f
10:04pm 1.6ft 3s 16 18 mph 1020.5mb 40f 36f
9:04pm 1.3ft 3s 13 16 mph 1021mb 40f 35f
8:04pm 1.3ft 5s 11 13 mph 1021.6mb 40f 34f
7:04pm 1.3ft 5s 9 11 mph 1022.5mb 40f 33f
6:04pm 1.3ft 5s 7 11 mph 1022.9mb 41f 32f
5:04pm 1.3ft 5s 7 9 mph 1023.5mb 41f 31f
4:04pm 1.3ft 5s 4 9 mph 1024.5mb 41f 31f
3:04pm 1.6ft 5s 4 7 mph 1024.4mb 41f 32f
2:04pm 1.6ft 5s 2 4 mph 1025.2mb 41f 32f
1:04pm 1.6ft 4s 2 4 mph 1025.6mb 41f 31f
12:04pm 1.6ft 5s 4 7 mph 1026.6mb 40f 30f
11:04am 2.5ft 4s 7 11 mph 1027.1mb 40f 29f
10:04am 2.5ft 4s 7 9 mph 1027.9mb 40f 28f
9:04am 2.5ft 5s 13 16 mph 1027.5mb 40f 28f
8:04am 3ft 5s 16 18 mph 1027.8mb 40f 28f
7:04am 3.5ft 5s 18 22 mph 1027.5mb 40f 28f
6:04am 3.5ft 4s 16 20 mph 1027.1mb 40f 28f
5:04am 3.5ft 4s 18 22 mph 1026.6mb 40f 28f
4:04am 3.5ft 5s 20 25 mph 1026.5mb 40f 29f
3:04am 3.5ft 5s 20 25 mph 1026.4mb 40f 30f
2:04am 4ft 5s 25 29 mph 1026.6mb 40f 31f
1:04am 3.5ft 4s 22 29 mph 1026.4mb 40f 32f
12:04am 4ft 4s 22 27 mph 1025.8mb 40f 33f
Mon 02/20 11:04pm 3.5ft 4s 20 27 mph 1025.4mb 40f 35f
10:04pm 3ft 4s 20 25 mph 1024.8mb 40f 36f
9:04pm 3ft 3s 22 29 mph 1024.4mb 40f 37f
8:04pm 2ft 3s 18 22 mph 1023.5mb 40f 38f
7:04pm 2.5ft 4s 18 22 mph 1023.2mb 41f 39f
6:04pm 3ft 4s 18 22 mph 1022.5mb 41f 39f
5:04pm 2.5ft 4s 18 20 mph 1021.6mb 41f 40f
4:04pm 2.5ft 4s 18 22 mph 1020.5mb 41f 40f
3:04pm 2.5ft 4s 18 20 mph 1019.3mb 41f 39f
2:04pm 3.5ft 4s 18 20 mph 1018.3mb 41f 38f
1:04pm 3.5ft 4s 20 25 mph 1018mb 41f 38f
12:04pm 3.5ft 4s 20 25 mph 1017.8mb 41f 37f
11:04am 3ft 4s 20 25 mph 1018mb 41f 36f
10:04am 3ft 4s 22 27 mph 1017.8mb 41f 35f
9:04am 3ft 4s 22 27 mph 1017.5mb 41f 35f
8:04am 2.5ft 4s 20 25 mph 1016.8mb 41f 35f
7:04am 2.5ft 4s 20 22 mph 1016.1mb 41f 35f
6:04am 3.5ft 8s 20 22 mph 1014.6mb 41f 35f
5:04am 2.5ft 4s 18 22 mph 1013.7mb 41f 36f
4:04am 3.5ft 4s 22 25 mph 1012.8mb 41f 36f
3:04am 3.5ft 8s 20 27 mph 1011.8mb 41f 37f
2:04am 3ft 8s 18 22 mph 1011.3mb 41f 38f
1:04am 2.5ft 6s 13 18 mph 1010.8mb 41f 38f
12:04am 3.5ft 6s 16 22 mph 1010mb 41f 41f
Sun 02/19 11:04pm 3ft 8s 16 20 mph 1009.5mb 41f 41f
10:04pm 2.5ft 8s 16 18 mph 1008.8mb 40f 42f
9:04pm 3ft 6s 9 11 mph 1008.2mb 40f 41f
8:04pm 3.5ft 6s 13 16 mph 1007.2mb 40f 42f
7:04pm 3.5ft 6s 11 13 mph 1006.4mb 40f 43f
6:04pm 3.5ft 6s 7 9 mph 1005.3mb 40f 42f
4:04pm 4.5ft 6s 16
mph
1003.2mb 40f 42f
3:04pm 4.5ft 6s 16 18 mph 1002mb 40f 43f
2:04pm 4.5ft 8s 13 16 mph 1001.2mb 40f 43f
1:04pm 4.5ft 8s 11 13 mph 1001mb 40f 42f
12:04pm 4.5ft 8s 11
mph
1001.2mb 40f 42f
11:04am 4ft 8s 11
mph
1002.1mb 40f 42f
10:04am 5ft 8s 13
mph
1002.1mb 40f 42f
9:04am 4.5ft 8s 13 16 mph 1001.7mb 40f 42f
7:04am 5ft 8s 13 20 mph 1000.4mb 40f 42f
6:04am 5ft 8s 16 18 mph 999.3mb 40f 42f
5:04am 6ft 8s 16 18 mph 998.1mb 40f 42f
4:04am 6ft 8s 16 18 mph 997.3mb 40f 42f
3:04am 6.5ft 8s 18 20 mph 997mb 40f 43f
1:04am 6.5ft 8s 18 22 mph 996.5mb 40f 43f
12:04am 6ft 8s 18 22 mph 996.3mb 40f 43f
Sat 02/18 11:04pm 6ft 6s 22 29 mph 995.8mb 40f 44f